Nearby METAR Reports

Meteorological Terminal Air Report (METAR)

K3I2 - Pt Pleasant, West Virginia, USA
Distance from station: S 11mi, 18km
Updated: Mon, 20-Sep-2021 9:55am EDT
Clear
Clear
 Wind from E
Wind: E 6 mph , 9 km/h
Temperature: 79°F , 26°C
Dew Point: 68°F , 20°C
Humidity: 70%
Barometer: 30.15 inHg , 1021 hPa
Clouds: Clear
Visibility: 10 miles , 16 km
2021/09/20 13:55 K3I2 201355Z AUTO 08005KT 10SM CLR 26/20 A3015 RMK AO2 T02580196
KUNI - Athens, Ohio, USA
Distance from station: NW 13mi, 21km
Updated: Mon, 20-Sep-2021 9:55am EDT
Clear
Clear
 Wind from SE
Wind: SE 5 mph , 7 km/h
Temperature: 73°F , 23°C
Dew Point: 68°F , 20°C
Humidity: 83%
Barometer: 30.14 inHg , 1020.7 hPa
Clouds: Clear
Visibility: 10 miles , 16 km
2021/09/20 13:55 KUNI 201355Z AUTO 14004KT 10SM CLR 23/20 A3014 RMK AO2 T02290197
 
KPKB - Parkersburg, West Virginia, USA
Distance from station: ENE 40mi, 65km
Updated: Mon, 20-Sep-2021 9:53am EDT
Few Clouds
Few Clouds
 Wind from SE
Wind: SE 5 mph , 7 km/h
Temperature: 75°F , 24°C
Dew Point: 66°F , 19°C
Humidity: 74%
Barometer: 30.17 inHg , 1021.7 hPa
Clouds: Few Clouds
Visibility: 10 miles , 16 km
Cloud details: Few Clouds 8000 ft
2021/09/20 13:53 KPKB 201353Z 14004KT 10SM FEW080 24/19 A3017 RMK AO2 SLP208 T02390194
KCRW - Charleston, West Virginia, USA
Distance from station: SSE 55mi, 88km
Updated: Mon, 20-Sep-2021 9:54am EDT
Mostly cloudy
Mostly cloudy
 Wind from calm
Wind: Calm
Temperature: 75°F , 24°C
Dew Point: 68°F , 20°C
Humidity: 78%
Barometer: 30.15 inHg , 1021 hPa
Clouds: Mostly cloudy
Visibility: 10 miles , 16 km
Cloud details: Few Clouds 10000 ft
Mostly cloudy 20000 ft
2021/09/20 13:54 KCRW 201354Z 00000KT 10SM FEW100 BKN200 24/20 A3015 RMK AO2 SLP201 T02440200
 
KHTS - Huntington, West Virginia, USA
Distance from station: SSW 55mi, 89km
Updated: Mon, 20-Sep-2021 9:51am EDT
Clear
Clear
 Wind from ESE
Wind: ESE 6 mph , 9 km/h
Temperature: 73°F , 23°C
Dew Point: 66°F , 19°C
Humidity: 78%
Barometer: 30.12 inHg , 1020 hPa
Clouds: Clear
Visibility: 10 miles , 16 km
2021/09/20 13:51 KHTS 201351Z 11005KT 10SM CLR 23/19 A3012 RMK AO2 SLP191 T02330194
KLHQ - Lancaster, Ohio, USA
Distance from station: NW 56mi, 91km
Updated: Mon, 20-Sep-2021 9:53am EDT
Partly cloudy
Partly cloudy
 
Temperature: 79°F , 26°C
Dew Point: 68°F , 20°C
Humidity: 70%
Barometer: 30.13 inHg , 1020.3 hPa
Clouds: Partly cloudy
Cloud details: Partly cloudy 11000 ft
2021/09/20 13:53 KLHQ 201353Z AUTO SCT110 26/20 A3013 RMK AO2 SLP196 T02610200 $
 
KZZV - Zanesville, Ohio, USA
Distance from station: N 61mi, 99km
Updated: Mon, 20-Sep-2021 9:53am EDT
Clear
Clear
 Wind from SSE
Wind: SSE 7 mph , 11 km/h
Temperature: 75°F , 24°C
Dew Point: 66°F , 19°C
Humidity: 74%
Barometer: 30.14 inHg , 1020.7 hPa
Clouds: Clear
Visibility: 10 miles , 16 km
2021/09/20 13:53 KZZV 201353Z AUTO 15006KT 10SM CLR 24/19 A3014 RMK AO2 SLP200 T02390194
KLCK - Rickenbacker Ang, Ohio, USA
Distance from station: NW 68mi, 110km
Updated: Mon, 20-Sep-2021 9:55am EDT
Light rain, Overcast
Light rain, Overcast
 Wind from calm
Wind: Calm
Temperature: 72°F , 22°C
Dew Point: 68°F , 20°C
Humidity: 88%
Barometer: 30.12 inHg , 1020 hPa
Summary: Light rain
Clouds: Overcast
Visibility: 10 miles , 16 km
Cloud details: Partly cloudy 3900 ft
Partly cloudy 7500 ft
Overcast 12000 ft
2021/09/20 13:55 KLCK 201355Z AUTO 00000KT 10SM -RA SCT039 SCT075 OVC120 22/20 A3012 RMK AO2 T02220202
 
KVTA - Newark, Ohio, USA
Distance from station: NNW 68mi, 110km
Updated: Mon, 20-Sep-2021 9:54am EDT
Clear
Clear
 Wind from varies
Wind: varies 3 mph , 6 km/h
Temperature: 75°F , 24°C
Dew Point: 64°F , 18°C
Humidity: 69%
Barometer: 30.13 inHg , 1020.3 hPa
Clouds: Clear
Visibility: 10 miles , 16 km
2021/09/20 13:54 KVTA 201354Z AUTO VRB03KT 10SM CLR 24/18 A3013 RMK AO2 SLP195 T02440183